createdAt,value
2022-10-29T00:00:50.374Z,991.436
2022-10-29T00:02:50.109Z,991.464
2022-10-29T00:04:50.286Z,991.468
2022-10-29T00:08:50.562Z,991.479
2022-10-29T00:10:50.198Z,991.499
2022-10-29T00:12:50.634Z,991.468
2022-10-29T00:14:50.186Z,991.454
2022-10-29T00:16:50.061Z,991.484
2022-10-29T00:18:50.564Z,991.543
2022-10-29T00:20:50.157Z,991.518
2022-10-29T00:22:50.588Z,991.539
2022-10-29T00:24:50.430Z,991.541
2022-10-29T00:26:50.395Z,991.535
2022-10-29T00:28:50.055Z,991.508
2022-10-29T00:30:50.585Z,991.483
2022-10-29T00:32:50.080Z,991.436
2022-10-29T00:34:50.063Z,991.417
2022-10-29T00:36:50.137Z,991.344
2022-10-29T00:38:50.736Z,991.359
2022-10-29T00:40:50.259Z,991.345
2022-10-29T00:42:49.871Z,991.332
2022-10-29T00:44:50.273Z,991.351
2022-10-29T00:46:50.194Z,991.442
2022-10-29T00:48:50.455Z,991.522
2022-10-29T00:50:50.041Z,991.492
2022-10-29T00:52:50.511Z,991.525
2022-10-29T00:54:50.088Z,991.544
2022-10-29T00:56:50.325Z,991.512
2022-10-29T00:58:49.897Z,991.531
2022-10-29T01:00:50.451Z,991.539
2022-10-29T01:02:50.352Z,991.520
2022-10-29T01:04:50.633Z,991.550
2022-10-29T01:06:50.444Z,991.523
2022-10-29T01:08:49.889Z,991.470
2022-10-29T01:10:50.475Z,991.425
2022-10-29T01:12:50.022Z,991.328
2022-10-29T01:14:50.602Z,991.280
2022-10-29T01:16:50.425Z,991.290
2022-10-29T01:18:50.125Z,991.214
2022-10-29T01:20:50.800Z,991.186
2022-10-29T01:22:50.328Z,991.164
2022-10-29T01:24:50.724Z,991.152
2022-10-29T01:26:50.594Z,991.152
2022-10-29T01:28:49.996Z,991.122
2022-10-29T01:30:50.407Z,991.090
2022-10-29T01:32:49.913Z,991.127
2022-10-29T01:34:49.851Z,991.119
2022-10-29T01:36:50.752Z,991.119
2022-10-29T01:38:50.273Z,991.121
2022-10-29T01:40:50.745Z,991.084
2022-10-29T01:42:50.201Z,991.084
2022-10-29T01:44:50.687Z,991.220
2022-10-29T01:46:50.414Z,991.207
2022-10-29T01:48:49.918Z,991.144
2022-10-29T01:50:50.340Z,991.119
2022-10-29T01:52:49.881Z,991.077
2022-10-29T01:54:50.348Z,991.033
2022-10-29T01:56:50.116Z,991.015
2022-10-29T01:58:50.580Z,991.039
2022-10-29T02:00:50.147Z,991.055
2022-10-29T02:02:50.740Z,991.115
2022-10-29T02:04:50.617Z,991.131
2022-10-29T02:06:50.768Z,991.131
2022-10-29T02:08:50.512Z,991.048
2022-10-29T02:10:49.906Z,991.025
2022-10-29T02:12:50.409Z,991.038
2022-10-29T02:14:50.783Z,991.042
2022-10-29T02:16:50.400Z,991.056
2022-10-29T02:18:49.936Z,991.042
2022-10-29T02:20:50.413Z,991.038
2022-10-29T02:22:50.373Z,991.027
2022-10-29T02:24:50.333Z,991.022
2022-10-29T02:26:50.130Z,991.022
2022-10-29T02:28:50.545Z,991.004
2022-10-29T02:30:49.976Z,991.025
2022-10-29T02:32:50.398Z,991.010
2022-10-29T02:34:50.579Z,990.988
2022-10-29T02:36:50.518Z,990.936
2022-10-29T02:38:50.001Z,990.934
2022-10-29T02:40:50.421Z,990.931
2022-10-29T02:42:49.860Z,990.936
2022-10-29T02:44:50.321Z,990.935
2022-10-29T02:46:50.142Z,990.866
2022-10-29T02:48:50.734Z,990.855
2022-10-29T02:50:50.228Z,990.842
2022-10-29T02:52:50.695Z,990.839
2022-10-29T02:54:50.153Z,990.839
2022-10-29T02:56:49.979Z,990.775
2022-10-29T02:58:50.365Z,990.784
2022-10-29T03:00:50.810Z,990.798
2022-10-29T03:02:50.393Z,990.786
2022-10-29T03:04:50.686Z,990.800
2022-10-29T03:06:50.326Z,990.768
2022-10-29T03:08:50.732Z,990.763
2022-10-29T03:10:50.043Z,990.841
2022-10-29T03:12:50.467Z,990.841
2022-10-29T03:14:49.909Z,990.841
2022-10-29T03:16:50.705Z,990.723
2022-10-29T03:18:50.141Z,990.622
2022-10-29T03:20:50.494Z,990.602
2022-10-29T03:22:49.960Z,990.639
2022-10-29T03:24:50.400Z,990.693
2022-10-29T03:26:50.196Z,990.694
2022-10-29T03:28:50.593Z,990.684
2022-10-29T03:30:50.046Z,990.730
2022-10-29T03:32:50.431Z,990.753
2022-10-29T03:34:54.756Z,990.761
2022-10-29T03:36:49.847Z,990.807
2022-10-29T03:38:50.209Z,990.861
2022-10-29T03:40:50.658Z,990.867
2022-10-29T03:42:50.083Z,990.844
2022-10-29T03:44:50.730Z,990.880
2022-10-29T03:46:50.633Z,990.885
2022-10-29T03:48:50.222Z,990.893
2022-10-29T03:50:50.687Z,990.893
2022-10-29T03:52:50.196Z,990.929
2022-10-29T03:54:50.589Z,990.934
2022-10-29T03:56:50.285Z,990.970
2022-10-29T03:58:50.675Z,990.964
2022-10-29T04:00:50.038Z,990.948
2022-10-29T04:02:50.672Z,990.945
2022-10-29T04:04:50.747Z,991.007
2022-10-29T04:06:50.552Z,991.005
2022-10-29T04:08:49.966Z,991.033
2022-10-29T04:10:50.430Z,991.016
2022-10-29T04:12:50.326Z,991.055
2022-10-29T04:16:50.549Z,991.116
2022-10-29T04:18:50.085Z,991.145
2022-10-29T04:23:54.640Z,991.142
2022-10-29T04:28:50.331Z,991.188
2022-10-29T04:30:49.807Z,991.188
2022-10-29T04:32:50.142Z,991.203
2022-10-29T04:34:50.027Z,991.234
2022-10-29T04:36:50.719Z,991.207
2022-10-29T04:38:50.176Z,991.207
2022-10-29T04:40:50.639Z,991.234
2022-10-29T04:42:50.164Z,991.251
2022-10-29T04:44:50.567Z,991.283
2022-10-29T04:46:50.347Z,991.308
2022-10-29T04:48:50.004Z,991.266
2022-10-29T04:50:50.802Z,991.239
2022-10-29T04:52:50.365Z,991.234
2022-10-29T04:54:49.874Z,991.272
2022-10-29T04:56:50.751Z,991.231
2022-10-29T04:58:50.212Z,991.252
2022-10-29T05:00:50.930Z,991.245
2022-10-29T05:02:50.697Z,991.230
2022-10-29T05:04:50.787Z,991.208
2022-10-29T05:06:50.584Z,991.163
2022-10-29T05:08:50.111Z,991.184
2022-10-29T05:10:50.669Z,991.225
2022-10-29T05:12:50.269Z,991.218
2022-10-29T05:14:50.736Z,991.204
2022-10-29T05:16:50.500Z,991.176
2022-10-29T05:18:50.017Z,991.184
2022-10-29T05:20:50.533Z,991.133
2022-10-29T05:22:49.935Z,991.107
2022-10-29T05:24:50.369Z,991.110
2022-10-29T05:26:50.254Z,991.046
2022-10-29T05:28:50.723Z,991.037
2022-10-29T05:30:50.104Z,991.068
2022-10-29T05:32:50.499Z,991.086
2022-10-29T05:34:50.566Z,991.093
2022-10-29T05:36:50.455Z,991.107
2022-10-29T05:38:50.478Z,991.107
2022-10-29T05:40:49.964Z,991.126
2022-10-29T05:42:50.436Z,991.140
2022-10-29T05:44:49.968Z,991.170
2022-10-29T05:46:50.797Z,991.116
2022-10-29T05:48:50.270Z,991.138
2022-10-29T05:50:49.904Z,991.143
2022-10-29T05:52:50.326Z,991.168
2022-10-29T05:54:49.847Z,991.158
2022-10-29T05:56:50.606Z,991.165
2022-10-29T05:58:50.179Z,991.132
2022-10-29T06:00:50.642Z,991.161
2022-10-29T06:02:50.273Z,991.208
2022-10-29T06:04:50.424Z,991.225
2022-10-29T06:06:50.645Z,991.298
2022-10-29T06:08:50.232Z,991.248
2022-10-29T06:10:50.711Z,991.285
2022-10-29T06:12:50.154Z,991.302
2022-10-29T06:14:50.627Z,991.303
2022-10-29T06:16:50.621Z,991.289
2022-10-29T06:18:50.045Z,991.273
2022-10-29T06:20:50.643Z,991.266
2022-10-29T06:22:50.069Z,991.282
2022-10-29T06:24:50.621Z,991.269
2022-10-29T06:26:50.396Z,991.259
2022-10-29T06:28:50.044Z,991.221
2022-10-29T06:30:50.740Z,991.190
2022-10-29T06:32:50.354Z,991.223
2022-10-29T06:34:50.439Z,991.230
2022-10-29T06:36:50.451Z,991.264
2022-10-29T06:38:49.866Z,991.334
2022-10-29T06:40:50.630Z,991.316
2022-10-29T06:42:50.007Z,991.306
2022-10-29T06:44:50.678Z,991.308
2022-10-29T06:46:50.463Z,991.269
2022-10-29T06:48:50.038Z,991.159
2022-10-29T06:50:50.623Z,991.177
2022-10-29T06:52:50.125Z,991.172
2022-10-29T06:54:50.549Z,991.146
2022-10-29T06:56:50.311Z,991.172
2022-10-29T06:58:50.749Z,991.223
2022-10-29T07:00:50.966Z,991.179
2022-10-29T07:02:49.880Z,991.179
2022-10-29T07:04:50.765Z,991.139
2022-10-29T07:06:50.534Z,991.176
2022-10-29T07:08:50.174Z,991.199
2022-10-29T07:10:50.677Z,991.198
2022-10-29T07:12:50.217Z,991.245
2022-10-29T07:14:50.747Z,991.217
2022-10-29T07:16:50.577Z,991.190
2022-10-29T07:18:50.097Z,991.152
2022-10-29T07:20:49.837Z,991.173
2022-10-29T07:22:50.295Z,991.158
2022-10-29T07:24:49.953Z,991.172
2022-10-29T07:26:50.778Z,991.209
2022-10-29T07:28:50.293Z,991.224
2022-10-29T07:30:50.779Z,991.316
2022-10-29T07:32:50.338Z,991.414
2022-10-29T07:34:50.419Z,991.437
2022-10-29T07:36:50.366Z,991.396
2022-10-29T07:38:50.751Z,991.360
2022-10-29T07:40:50.335Z,991.342
2022-10-29T07:42:50.769Z,991.327
2022-10-29T07:44:50.369Z,991.376
2022-10-29T07:46:50.113Z,991.384
2022-10-29T07:48:50.669Z,991.397
2022-10-29T07:50:50.150Z,991.429
2022-10-29T07:52:50.645Z,991.378
2022-10-29T07:54:50.117Z,991.355
2022-10-29T07:56:49.957Z,991.426
2022-10-29T07:58:50.377Z,991.410
2022-10-29T08:00:50.267Z,991.366
2022-10-29T08:02:50.107Z,991.351
2022-10-29T08:04:49.961Z,991.382
2022-10-29T08:06:49.811Z,991.434
2022-10-29T08:08:50.347Z,991.396
2022-10-29T08:10:50.761Z,991.396
2022-10-29T08:12:50.377Z,991.466
2022-10-29T08:14:49.878Z,991.452
2022-10-29T08:16:50.673Z,991.413
2022-10-29T08:18:50.110Z,991.396
2022-10-29T08:20:50.480Z,991.352
2022-10-29T08:22:50.015Z,991.387
2022-10-29T08:24:49.916Z,991.387
2022-10-29T08:26:50.792Z,991.372
2022-10-29T08:28:50.200Z,991.368
2022-10-29T08:30:50.774Z,991.345
2022-10-29T08:32:50.234Z,991.372
2022-10-29T08:34:50.040Z,991.328
2022-10-29T08:36:49.849Z,991.354
2022-10-29T08:38:50.312Z,991.315
2022-10-29T08:40:49.835Z,991.357
2022-10-29T08:42:50.277Z,991.363
2022-10-29T08:44:50.681Z,991.309
2022-10-29T08:46:50.654Z,991.355
2022-10-29T08:48:50.064Z,991.370
2022-10-29T08:50:50.661Z,991.364
2022-10-29T08:53:22.624Z,991.387
2022-10-29T08:54:50.718Z,991.356
2022-10-29T08:56:50.465Z,991.379
2022-10-29T08:58:50.028Z,991.407
2022-10-29T09:00:50.581Z,991.427
2022-10-29T09:02:50.249Z,991.439
2022-10-29T09:04:50.432Z,991.396
2022-10-29T09:06:50.191Z,991.449
2022-10-29T09:08:50.744Z,991.441
2022-10-29T09:10:50.302Z,991.486
2022-10-29T09:12:49.829Z,991.476
2022-10-29T09:14:50.295Z,991.464
2022-10-29T09:16:49.937Z,991.383
2022-10-29T09:18:50.346Z,991.383
2022-10-29T09:20:49.959Z,991.388
2022-10-29T09:22:50.421Z,991.373
2022-10-29T09:24:49.869Z,991.388
2022-10-29T09:26:50.663Z,991.346
2022-10-29T09:28:50.072Z,991.366
2022-10-29T09:30:50.581Z,991.329
2022-10-29T09:34:49.937Z,991.328
2022-10-29T09:36:50.662Z,991.338
2022-10-29T09:38:50.209Z,991.356
2022-10-29T09:40:50.621Z,991.312
2022-10-29T09:42:50.246Z,991.293
2022-10-29T09:44:50.620Z,991.252
2022-10-29T09:46:50.557Z,991.272
2022-10-29T09:48:50.134Z,991.243
2022-10-29T09:50:50.717Z,991.241
2022-10-29T09:52:50.164Z,991.249
2022-10-29T09:54:50.686Z,991.177
2022-10-29T09:56:56.477Z,991.233
2022-10-29T09:58:50.050Z,991.217
2022-10-29T10:00:50.470Z,991.208
2022-10-29T10:02:50.220Z,991.201
2022-10-29T10:04:50.252Z,991.112
2022-10-29T10:06:50.265Z,991.150
2022-10-29T10:08:50.668Z,991.173
2022-10-29T10:10:50.177Z,991.149
2022-10-29T10:12:50.646Z,991.034
2022-10-29T10:14:50.167Z,990.992
2022-10-29T10:16:49.982Z,990.940
2022-10-29T10:18:50.507Z,990.916
2022-10-29T10:20:49.987Z,990.918
2022-10-29T10:22:50.392Z,990.901
2022-10-29T10:24:49.911Z,990.884
2022-10-29T10:26:50.751Z,990.856
2022-10-29T10:28:50.326Z,990.857
2022-10-29T10:30:50.791Z,990.861
2022-10-29T10:32:50.460Z,990.811
2022-10-29T10:34:50.511Z,990.855
2022-10-29T10:36:50.501Z,990.824
2022-10-29T10:38:50.443Z,990.763
2022-10-29T10:40:50.136Z,990.754
2022-10-29T10:42:50.634Z,990.754
2022-10-29T10:44:50.304Z,990.754
2022-10-29T10:46:50.213Z,990.747
2022-10-29T10:48:50.786Z,990.717
2022-10-29T10:50:50.206Z,990.690
2022-10-29T10:52:50.720Z,990.656
2022-10-29T10:54:50.150Z,990.666
2022-10-29T10:56:50.049Z,990.705
2022-10-29T10:58:49.851Z,990.689
2022-10-29T11:00:50.529Z,990.681
2022-10-29T11:02:50.420Z,990.659
2022-10-29T11:04:50.330Z,990.685
2022-10-29T11:06:50.250Z,990.594
2022-10-29T11:08:50.712Z,990.574
2022-10-29T11:10:50.408Z,990.504
2022-10-29T11:12:50.022Z,990.535
2022-10-29T11:14:50.597Z,990.521
2022-10-29T11:16:50.508Z,990.521
2022-10-29T11:18:50.177Z,990.478
2022-10-29T11:20:50.698Z,990.481
2022-10-29T11:22:50.235Z,990.414
2022-10-29T11:24:50.747Z,990.377
2022-10-29T11:26:50.785Z,990.399
2022-10-29T11:28:50.174Z,990.397
2022-10-29T11:30:49.891Z,990.441
2022-10-29T11:32:50.307Z,990.420
2022-10-29T11:34:50.290Z,990.423
2022-10-29T11:36:50.177Z,990.403
2022-10-29T11:38:50.714Z,990.380
2022-10-29T11:40:50.185Z,990.352
2022-10-29T11:42:50.829Z,990.307
2022-10-29T11:44:50.354Z,990.307
2022-10-29T11:46:50.201Z,990.307
2022-10-29T11:48:50.726Z,990.239
2022-10-29T11:50:50.278Z,990.217
2022-10-29T11:52:50.699Z,990.198
2022-10-29T11:54:50.159Z,990.182
2022-10-29T11:56:50.081Z,990.150
2022-10-29T11:58:50.590Z,990.087
2022-10-29T12:00:50.640Z,990.031
2022-10-29T12:02:50.068Z,989.984
2022-10-29T12:04:50.038Z,989.967
2022-10-29T12:06:49.883Z,989.955
2022-10-29T12:08:50.463Z,989.942
2022-10-29T12:10:50.073Z,989.929
2022-10-29T12:12:50.687Z,989.874
2022-10-29T12:14:50.281Z,989.824
2022-10-29T12:16:50.116Z,989.825
2022-10-29T12:18:50.707Z,989.750
2022-10-29T12:20:50.307Z,989.750
2022-10-29T12:22:50.753Z,989.671
2022-10-29T12:24:50.406Z,989.647
2022-10-29T12:26:50.226Z,989.652
2022-10-29T12:28:50.766Z,989.623
2022-10-29T12:30:50.234Z,989.598
2022-10-29T12:32:50.788Z,989.593
2022-10-29T12:34:50.704Z,989.585
2022-10-29T12:36:58.058Z,989.588
2022-10-29T12:38:50.638Z,989.538
2022-10-29T12:40:50.119Z,989.555
2022-10-29T12:42:50.749Z,989.565
2022-10-29T12:44:50.237Z,989.519
2022-10-29T12:46:50.026Z,989.479
2022-10-29T12:48:50.479Z,989.463
2022-10-29T12:50:50.110Z,989.447
2022-10-29T12:52:50.648Z,989.410
2022-10-29T12:54:50.247Z,989.410
2022-10-29T12:56:50.889Z,989.427
2022-10-29T12:58:50.453Z,989.366
2022-10-29T13:00:50.157Z,989.337
2022-10-29T13:02:50.482Z,989.312
2022-10-29T13:04:49.932Z,989.312
2022-10-29T13:06:49.873Z,989.239
2022-10-29T13:08:49.838Z,989.268
2022-10-29T13:10:50.405Z,989.256
2022-10-29T13:12:49.967Z,989.239
2022-10-29T13:14:50.528Z,989.245
2022-10-29T13:16:50.436Z,989.221
2022-10-29T13:18:49.927Z,989.167
2022-10-29T13:20:50.414Z,989.115
2022-10-29T13:22:49.944Z,989.102
2022-10-29T13:24:50.570Z,989.111
2022-10-29T13:26:50.420Z,989.076
2022-10-29T13:28:49.951Z,989.110
2022-10-29T13:30:50.387Z,989.124
2022-10-29T13:32:49.975Z,989.124
2022-10-29T13:34:49.907Z,989.124
2022-10-29T13:36:49.882Z,989.124
2022-10-29T13:39:07.617Z,989.084
2022-10-29T13:40:50.318Z,989.047
2022-10-29T13:42:49.812Z,989.049
2022-10-29T13:44:50.457Z,989.015
2022-10-29T13:46:50.295Z,988.999
2022-10-29T13:48:49.845Z,988.961
2022-10-29T13:50:50.350Z,989.057
2022-10-29T13:52:49.899Z,989.010
2022-10-29T13:54:50.432Z,989.012
2022-10-29T13:56:50.413Z,989.066
2022-10-29T13:58:49.845Z,989.037
2022-10-29T14:00:50.466Z,989.008
2022-10-29T14:02:50.162Z,988.996
2022-10-29T14:04:50.096Z,988.994
2022-10-29T14:06:50.059Z,988.973
2022-10-29T14:08:50.543Z,988.945
2022-10-29T14:10:49.965Z,988.967
2022-10-29T14:12:50.013Z,988.936
2022-10-29T14:14:50.548Z,988.906
2022-10-29T14:16:50.479Z,988.904
2022-10-29T14:18:50.034Z,988.843
2022-10-29T14:20:50.606Z,988.838
2022-10-29T14:22:50.082Z,988.838
2022-10-29T14:24:50.634Z,988.872
2022-10-29T14:26:50.477Z,988.827
2022-10-29T14:28:49.937Z,988.831
2022-10-29T14:30:50.372Z,988.848
2022-10-29T14:32:49.858Z,988.831
2022-10-29T14:34:49.826Z,988.826
2022-10-29T14:36:50.582Z,988.845
2022-10-29T14:38:50.100Z,988.811
2022-10-29T14:40:50.537Z,988.807
2022-10-29T14:42:50.144Z,988.809
2022-10-29T14:44:51.177Z,988.784
2022-10-29T14:46:50.075Z,988.807
2022-10-29T14:48:50.594Z,988.827
2022-10-29T14:50:50.188Z,988.864
2022-10-29T14:52:54.388Z,988.876
2022-10-29T14:54:50.445Z,988.853
2022-10-29T14:56:50.484Z,988.815
2022-10-29T14:58:50.020Z,988.811
2022-10-29T15:00:50.825Z,988.768
2022-10-29T15:02:50.993Z,988.788
2022-10-29T15:04:50.353Z,988.736
2022-10-29T15:06:50.178Z,988.720
2022-10-29T15:08:50.708Z,988.767
2022-10-29T15:10:50.217Z,988.731
2022-10-29T15:12:50.593Z,988.728
2022-10-29T15:14:50.066Z,988.756
2022-10-29T15:16:49.922Z,988.787
2022-10-29T15:18:50.552Z,988.770
2022-10-29T15:20:50.116Z,988.746
2022-10-29T15:22:50.762Z,988.757
2022-10-29T15:24:50.264Z,988.732
2022-10-29T15:26:50.099Z,988.806
2022-10-29T15:28:50.626Z,988.805
2022-10-29T15:30:50.101Z,988.794
2022-10-29T15:32:50.158Z,988.791
2022-10-29T15:34:50.038Z,988.822
2022-10-29T15:36:50.796Z,988.822
2022-10-29T15:38:52.917Z,988.797
2022-10-29T15:40:50.364Z,988.795
2022-10-29T15:42:49.914Z,988.755
2022-10-29T15:44:50.385Z,988.780
2022-10-29T15:46:50.400Z,988.765
2022-10-29T15:48:49.942Z,988.773
2022-10-29T15:50:50.381Z,988.743
2022-10-29T15:52:49.928Z,988.773
2022-10-29T15:54:50.453Z,988.741
2022-10-29T15:56:50.746Z,988.757
2022-10-29T15:58:50.289Z,988.728
2022-10-29T16:00:50.055Z,988.730
2022-10-29T16:02:49.896Z,988.721
2022-10-29T16:04:49.854Z,988.791
2022-10-29T16:06:50.790Z,988.769
2022-10-29T16:08:50.358Z,988.779
2022-10-29T16:10:49.858Z,988.772
2022-10-29T16:12:50.490Z,988.761
2022-10-29T16:14:49.974Z,988.806
2022-10-29T16:16:50.764Z,988.790
2022-10-29T16:18:50.290Z,988.756
2022-10-29T16:20:50.820Z,988.746
2022-10-29T16:22:50.374Z,988.778
2022-10-29T16:24:49.911Z,988.753
2022-10-29T16:26:49.841Z,988.748
2022-10-29T16:28:50.205Z,988.782
2022-10-29T16:30:50.686Z,988.776
2022-10-29T16:32:50.185Z,988.744
2022-10-29T16:34:50.203Z,988.776
2022-10-29T16:36:50.103Z,988.763
2022-10-29T16:38:50.718Z,988.779
2022-10-29T16:40:50.239Z,988.800
2022-10-29T16:42:49.952Z,988.768
2022-10-29T16:44:50.513Z,988.767
2022-10-29T16:46:50.443Z,988.867
2022-10-29T16:48:49.926Z,988.861
2022-10-29T16:50:50.518Z,988.863
2022-10-29T16:52:49.953Z,988.892
2022-10-29T16:54:50.516Z,988.934
2022-10-29T16:56:50.433Z,988.929
2022-10-29T16:58:49.942Z,988.893
2022-10-29T17:00:50.926Z,988.895
2022-10-29T17:02:49.892Z,988.876
2022-10-29T17:04:50.769Z,988.864
2022-10-29T17:06:50.556Z,988.896
2022-10-29T17:08:49.887Z,988.906
2022-10-29T17:10:50.431Z,988.912
2022-10-29T17:12:49.891Z,988.899
2022-10-29T17:14:50.363Z,988.924
2022-10-29T17:16:50.158Z,988.949
2022-10-29T17:18:50.669Z,988.960
2022-10-29T17:20:50.252Z,988.984
2022-10-29T17:22:50.683Z,988.994
2022-10-29T17:24:50.250Z,989.010
2022-10-29T17:26:50.117Z,989.058
2022-10-29T17:28:50.514Z,989.080
2022-10-29T17:30:50.034Z,989.096
2022-10-29T17:32:50.414Z,989.105
2022-10-29T17:34:50.303Z,989.129
2022-10-29T17:36:50.215Z,989.150
2022-10-29T17:38:50.752Z,989.163
2022-10-29T17:40:50.088Z,989.173
2022-10-29T17:42:50.602Z,989.202
2022-10-29T17:44:50.115Z,989.237
2022-10-29T17:46:49.859Z,989.253
2022-10-29T17:48:50.307Z,989.264
2022-10-29T17:50:50.748Z,989.284
2022-10-29T17:52:50.170Z,989.308
2022-10-29T17:54:50.692Z,989.337
2022-10-29T17:56:50.490Z,989.299
2022-10-29T17:58:50.032Z,989.279
2022-10-29T18:00:50.726Z,989.254
2022-10-29T18:02:50.703Z,989.259
2022-10-29T18:04:49.881Z,989.246
2022-10-29T18:06:50.677Z,989.273
2022-10-29T18:08:50.180Z,989.257
2022-10-29T18:10:50.556Z,989.291
2022-10-29T18:12:50.156Z,989.251
2022-10-29T18:14:50.603Z,989.242
2022-10-29T18:16:50.499Z,989.242
2022-10-29T18:19:03.408Z,989.265
2022-10-29T18:20:49.967Z,989.280
2022-10-29T18:22:56.288Z,989.311
2022-10-29T18:24:50.285Z,989.299
2022-10-29T18:26:50.147Z,989.283
2022-10-29T18:28:50.621Z,989.264
2022-10-29T18:30:50.090Z,989.291
2022-10-29T18:32:50.661Z,989.245
2022-10-29T18:34:49.898Z,989.215
2022-10-29T18:36:51.257Z,989.185
2022-10-29T18:38:50.590Z,989.197
2022-10-29T18:40:50.020Z,989.178
2022-10-29T18:42:50.454Z,989.183
2022-10-29T18:44:49.962Z,989.213
2022-10-29T18:46:50.731Z,989.225
2022-10-29T18:48:50.252Z,989.228
2022-10-29T18:50:50.735Z,989.253
2022-10-29T18:52:50.192Z,989.270
2022-10-29T18:54:50.823Z,989.235
2022-10-29T18:56:49.825Z,989.252
2022-10-29T18:58:50.180Z,989.295
2022-10-29T19:00:50.903Z,989.270
2022-10-29T19:02:50.571Z,989.280
2022-10-29T19:04:50.498Z,989.278
2022-10-29T19:06:50.470Z,989.228
2022-10-29T19:08:49.985Z,989.115
2022-10-29T19:10:50.389Z,989.041
2022-10-29T19:12:50.721Z,989.115
2022-10-29T19:14:50.144Z,989.202
2022-10-29T19:16:49.930Z,989.203
2022-10-29T19:18:50.487Z,989.056
2022-10-29T19:20:50.072Z,988.989
2022-10-29T19:22:50.402Z,988.899
2022-10-29T19:24:49.876Z,989.059
2022-10-29T19:26:50.482Z,989.146
2022-10-29T19:28:49.946Z,989.218
2022-10-29T19:30:50.324Z,989.181
2022-10-29T19:32:50.742Z,989.081
2022-10-29T19:34:50.783Z,989.039
2022-10-29T19:36:50.466Z,989.071
2022-10-29T19:38:49.995Z,989.071
2022-10-29T19:40:50.372Z,989.104
2022-10-29T19:42:50.794Z,989.145
2022-10-29T19:44:56.728Z,989.038
2022-10-29T19:46:50.613Z,989.021
2022-10-29T19:48:50.106Z,989.001
2022-10-29T19:50:50.483Z,989.037
2022-10-29T19:52:49.885Z,989.040
2022-10-29T19:54:50.438Z,989.105
2022-10-29T19:56:50.264Z,989.105
2022-10-29T19:58:50.700Z,989.107
2022-10-29T20:00:50.384Z,989.116
2022-10-29T20:02:49.974Z,989.138
2022-10-29T20:04:49.890Z,989.111
2022-10-29T20:06:50.598Z,989.115
2022-10-29T20:08:50.053Z,989.171
2022-10-29T20:10:50.481Z,989.180
2022-10-29T20:12:49.832Z,989.189
2022-10-29T20:14:50.351Z,989.215
2022-10-29T20:16:50.163Z,989.206
2022-10-29T20:18:50.629Z,989.199
2022-10-29T20:20:50.309Z,989.190
2022-10-29T20:22:49.849Z,989.199
2022-10-29T20:24:50.330Z,989.161
2022-10-29T20:26:50.190Z,989.161
2022-10-29T20:28:50.679Z,989.169
2022-10-29T20:30:50.159Z,989.218
2022-10-29T20:32:50.489Z,989.204
2022-10-29T20:34:50.424Z,989.181
2022-10-29T20:36:50.502Z,989.175
2022-10-29T20:38:50.291Z,989.188
2022-10-29T20:40:50.857Z,989.163
2022-10-29T20:42:50.571Z,989.169
2022-10-29T20:44:50.374Z,989.189
2022-10-29T20:46:50.185Z,989.256
2022-10-29T20:48:50.624Z,989.212
2022-10-29T20:50:50.116Z,989.207
2022-10-29T20:52:50.419Z,989.217
2022-10-29T20:54:49.943Z,989.229
2022-10-29T20:56:50.535Z,989.227
2022-10-29T20:58:49.962Z,989.207
2022-10-29T21:00:50.697Z,989.213
2022-10-29T21:02:50.534Z,989.213
2022-10-29T21:04:50.515Z,989.209
2022-10-29T21:06:50.402Z,989.200
2022-10-29T21:08:49.861Z,989.250
2022-10-29T21:10:50.351Z,989.239
2022-10-29T21:12:49.808Z,989.258
2022-10-29T21:14:50.211Z,989.234
2022-10-29T21:16:49.881Z,989.208
2022-10-29T21:18:50.462Z,989.234
2022-10-29T21:20:49.872Z,989.185
2022-10-29T21:22:50.245Z,989.176
2022-10-29T21:24:50.645Z,989.194
2022-10-29T21:26:50.293Z,989.160
2022-10-29T21:28:50.799Z,989.126
2022-10-29T21:30:50.834Z,989.127
2022-10-29T21:32:50.351Z,989.137
2022-10-29T21:34:50.173Z,989.127
2022-10-29T21:36:49.940Z,989.130
2022-10-29T21:38:50.341Z,989.139
2022-10-29T21:40:50.752Z,989.141
2022-10-29T21:42:50.277Z,989.182
2022-10-29T21:44:50.657Z,989.161
2022-10-29T21:46:50.514Z,989.188
2022-10-29T21:48:50.100Z,989.212
2022-10-29T21:50:50.546Z,989.234
2022-10-29T21:52:50.150Z,989.206
2022-10-29T21:54:50.440Z,989.223
2022-10-29T21:56:50.264Z,989.208
2022-10-29T21:58:50.673Z,989.217
2022-10-29T22:00:50.257Z,989.219
2022-10-29T22:02:50.030Z,989.169
2022-10-29T22:04:50.031Z,989.153
2022-10-29T22:06:49.819Z,989.153
2022-10-29T22:08:50.248Z,989.104
2022-10-29T22:10:50.777Z,989.079
2022-10-29T22:12:50.093Z,989.111
2022-10-29T22:14:50.413Z,989.091
2022-10-29T22:16:50.161Z,989.138
2022-10-29T22:18:50.661Z,989.131
2022-10-29T22:20:50.306Z,989.126
2022-10-29T22:22:50.596Z,989.131
2022-10-29T22:24:49.887Z,989.141
2022-10-29T22:26:50.727Z,989.131
2022-10-29T22:28:50.326Z,989.182
2022-10-29T22:30:49.867Z,989.157
2022-10-29T22:32:50.197Z,989.151
2022-10-29T22:34:50.287Z,989.117
2022-10-29T22:36:50.065Z,989.072
2022-10-29T22:38:50.447Z,989.118
2022-10-29T22:40:49.993Z,989.043
2022-10-29T22:42:50.332Z,989.038
2022-10-29T22:44:50.797Z,989.049
2022-10-29T22:46:50.605Z,989.001
2022-10-29T22:48:50.027Z,988.974
2022-10-29T22:50:50.725Z,988.935
2022-10-29T22:52:50.122Z,988.932
2022-10-29T22:54:50.543Z,988.922
2022-10-29T22:56:50.227Z,988.898
2022-10-29T22:58:50.628Z,988.908
2022-10-29T23:00:50.306Z,988.851
2022-10-29T23:02:49.908Z,988.904
2022-10-29T23:04:49.796Z,988.909
2022-10-29T23:06:50.467Z,988.870
2022-10-29T23:08:49.944Z,988.880
2022-10-29T23:10:50.379Z,988.853
2022-10-29T23:12:50.750Z,988.873
2022-10-29T23:14:50.209Z,988.869
2022-10-29T23:16:50.248Z,988.873
2022-10-29T23:18:50.631Z,988.891
2022-10-29T23:20:50.045Z,988.900
2022-10-29T23:22:50.520Z,988.926
2022-10-29T23:24:50.134Z,988.913
2022-10-29T23:26:49.873Z,988.890
2022-10-29T23:28:50.301Z,988.890
2022-10-29T23:30:50.699Z,988.889
2022-10-29T23:32:50.079Z,988.879
2022-10-29T23:34:49.963Z,988.874
2022-10-29T23:36:53.584Z,988.864
2022-10-29T23:38:50.248Z,988.844
2022-10-29T23:40:50.649Z,988.882
2022-10-29T23:42:50.191Z,988.856
2022-10-29T23:44:50.568Z,988.873
2022-10-29T23:46:50.346Z,988.809
2022-10-29T23:48:49.811Z,988.786
2022-10-29T23:50:50.226Z,988.770
2022-10-29T23:52:50.601Z,988.747
2022-10-29T23:54:49.963Z,988.691
2022-10-29T23:56:50.701Z,988.687
2022-10-29T23:58:50.192Z,988.704
